sensor_id;sensor_type;location;lat;lon;timestamp;P1;durP1;ratioP1;P2;durP2;ratioP2
9597;SDS011;4837;50.890;4.724;2023-05-06T00:00:10;3.15;;;1.88;;
9597;SDS011;4837;50.890;4.724;2023-05-06T00:02:36;2.30;;;1.63;;
9597;SDS011;4837;50.890;4.724;2023-05-06T00:05:03;2.65;;;1.80;;
9597;SDS011;4837;50.890;4.724;2023-05-06T00:07:29;4.10;;;1.90;;
9597;SDS011;4837;50.890;4.724;2023-05-06T00:09:55;3.40;;;1.90;;
9597;SDS011;4837;50.890;4.724;2023-05-06T00:12:21;1.85;;;1.65;;
9597;SDS011;4837;50.890;4.724;2023-05-06T00:14:47;2.10;;;1.50;;
9597;SDS011;4837;50.890;4.724;2023-05-06T00:17:14;2.70;;;1.85;;
9597;SDS011;4837;50.890;4.724;2023-05-06T00:19:40;1.70;;;1.58;;
9597;SDS011;4837;50.890;4.724;2023-05-06T00:22:08;2.47;;;1.75;;
9597;SDS011;4837;50.890;4.724;2023-05-06T00:24:34;5.10;;;1.90;;
9597;SDS011;4837;50.890;4.724;2023-05-06T00:27:00;3.38;;;2.13;;
9597;SDS011;4837;50.890;4.724;2023-05-06T00:29:26;4.00;;;2.03;;
9597;SDS011;4837;50.890;4.724;2023-05-06T00:31:52;2.72;;;2.10;;
9597;SDS011;4837;50.890;4.724;2023-05-06T00:34:18;3.15;;;2.13;;
9597;SDS011;4837;50.890;4.724;2023-05-06T00:36:45;4.82;;;2.97;;
9597;SDS011;4837;50.890;4.724;2023-05-06T00:39:11;3.30;;;2.17;;
9597;SDS011;4837;50.890;4.724;2023-05-06T00:41:37;3.03;;;2.35;;
9597;SDS011;4837;50.890;4.724;2023-05-06T00:44:03;4.28;;;2.40;;
9597;SDS011;4837;50.890;4.724;2023-05-06T00:46:29;5.60;;;2.15;;
9597;SDS011;4837;50.890;4.724;2023-05-06T00:48:55;5.30;;;2.28;;
9597;SDS011;4837;50.890;4.724;2023-05-06T00:51:22;5.47;;;2.65;;
9597;SDS011;4837;50.890;4.724;2023-05-06T00:53:48;5.43;;;2.40;;
9597;SDS011;4837;50.890;4.724;2023-05-06T00:56:14;5.32;;;2.60;;
9597;SDS011;4837;50.890;4.724;2023-05-06T00:58:42;7.72;;;2.85;;
9597;SDS011;4837;50.890;4.724;2023-05-06T01:01:09;3.80;;;2.55;;
9597;SDS011;4837;50.890;4.724;2023-05-06T01:03:35;4.47;;;2.72;;
9597;SDS011;4837;50.890;4.724;2023-05-06T01:08:34;3.78;;;2.45;;
9597;SDS011;4837;50.890;4.724;2023-05-06T01:11:06;3.72;;;2.70;;
9597;SDS011;4837;50.890;4.724;2023-05-06T01:13:46;6.15;;;2.80;;
9597;SDS011;4837;50.890;4.724;2023-05-06T01:16:13;5.22;;;2.92;;
9597;SDS011;4837;50.890;4.724;2023-05-06T01:18:40;5.82;;;3.03;;
9597;SDS011;4837;50.890;4.724;2023-05-06T01:21:07;4.82;;;2.85;;
9597;SDS011;4837;50.890;4.724;2023-05-06T01:26:16;6.70;;;3.10;;
9597;SDS011;4837;50.890;4.724;2023-05-06T01:28:42;6.25;;;2.85;;
9597;SDS011;4837;50.890;4.724;2023-05-06T01:31:09;5.78;;;2.97;;
9597;SDS011;4837;50.890;4.724;2023-05-06T01:36:14;4.88;;;3.03;;
9597;SDS011;4837;50.890;4.724;2023-05-06T01:41:12;7.25;;;3.13;;
9597;SDS011;4837;50.890;4.724;2023-05-06T01:43:40;6.63;;;3.30;;
9597;SDS011;4837;50.890;4.724;2023-05-06T01:46:08;6.88;;;2.83;;
9597;SDS011;4837;50.890;4.724;2023-05-06T01:48:36;4.25;;;3.00;;
9597;SDS011;4837;50.890;4.724;2023-05-06T01:51:03;5.63;;;2.80;;
9597;SDS011;4837;50.890;4.724;2023-05-06T01:53:30;6.82;;;2.92;;
9597;SDS011;4837;50.890;4.724;2023-05-06T01:55:57;5.72;;;3.13;;
9597;SDS011;4837;50.890;4.724;2023-05-06T01:58:23;5.35;;;2.97;;
9597;SDS011;4837;50.890;4.724;2023-05-06T02:00:49;5.75;;;3.05;;
9597;SDS011;4837;50.890;4.724;2023-05-06T02:03:15;5.10;;;2.92;;
9597;SDS011;4837;50.890;4.724;2023-05-06T02:05:41;6.50;;;2.72;;
9597;SDS011;4837;50.890;4.724;2023-05-06T02:08:07;5.32;;;3.10;;
9597;SDS011;4837;50.890;4.724;2023-05-06T02:10:33;5.18;;;2.95;;
9597;SDS011;4837;50.890;4.724;2023-05-06T02:12:59;4.25;;;2.67;;
9597;SDS011;4837;50.890;4.724;2023-05-06T02:15:26;4.53;;;2.70;;
9597;SDS011;4837;50.890;4.724;2023-05-06T02:17:52;4.60;;;2.70;;
9597;SDS011;4837;50.890;4.724;2023-05-06T02:20:18;4.38;;;2.50;;
9597;SDS011;4837;50.890;4.724;2023-05-06T02:22:44;4.53;;;3.10;;
9597;SDS011;4837;50.890;4.724;2023-05-06T02:25:10;4.82;;;2.55;;
9597;SDS011;4837;50.890;4.724;2023-05-06T02:27:36;5.00;;;3.00;;
9597;SDS011;4837;50.890;4.724;2023-05-06T02:30:03;4.55;;;2.40;;
9597;SDS011;4837;50.890;4.724;2023-05-06T02:32:29;4.53;;;2.80;;
9597;SDS011;4837;50.890;4.724;2023-05-06T02:34:55;4.03;;;2.90;;
9597;SDS011;4837;50.890;4.724;2023-05-06T02:37:21;5.22;;;3.22;;
9597;SDS011;4837;50.890;4.724;2023-05-06T02:39:47;4.88;;;2.88;;
9597;SDS011;4837;50.890;4.724;2023-05-06T02:42:13;6.22;;;2.92;;
9597;SDS011;4837;50.890;4.724;2023-05-06T02:44:40;4.78;;;3.22;;
9597;SDS011;4837;50.890;4.724;2023-05-06T02:47:06;4.47;;;3.10;;
9597;SDS011;4837;50.890;4.724;2023-05-06T02:49:32;6.88;;;3.10;;
9597;SDS011;4837;50.890;4.724;2023-05-06T02:51:58;5.25;;;3.17;;
9597;SDS011;4837;50.890;4.724;2023-05-06T02:54:24;4.63;;;2.90;;
9597;SDS011;4837;50.890;4.724;2023-05-06T02:56:51;5.47;;;2.90;;
9597;SDS011;4837;50.890;4.724;2023-05-06T02:59:17;5.85;;;3.53;;
9597;SDS011;4837;50.890;4.724;2023-05-06T03:01:43;7.45;;;3.30;;
9597;SDS011;4837;50.890;4.724;2023-05-06T03:04:10;4.65;;;3.55;;
9597;SDS011;4837;50.890;4.724;2023-05-06T03:06:36;5.00;;;3.03;;
9597;SDS011;4837;50.890;4.724;2023-05-06T03:09:02;5.22;;;3.22;;
9597;SDS011;4837;50.890;4.724;2023-05-06T03:11:29;5.15;;;3.30;;
9597;SDS011;4837;50.890;4.724;2023-05-06T03:13:55;5.47;;;3.08;;
9597;SDS011;4837;50.890;4.724;2023-05-06T03:16:22;7.47;;;3.20;;
9597;SDS011;4837;50.890;4.724;2023-05-06T03:18:48;7.00;;;3.08;;
9597;SDS011;4837;50.890;4.724;2023-05-06T03:21:14;7.60;;;3.45;;
9597;SDS011;4837;50.890;4.724;2023-05-06T03:23:41;6.63;;;3.38;;
9597;SDS011;4837;50.890;4.724;2023-05-06T03:26:07;8.52;;;4.30;;
9597;SDS011;4837;50.890;4.724;2023-05-06T03:28:33;8.02;;;3.58;;
9597;SDS011;4837;50.890;4.724;2023-05-06T03:30:59;6.60;;;4.22;;
9597;SDS011;4837;50.890;4.724;2023-05-06T03:33:25;7.55;;;4.53;;
9597;SDS011;4837;50.890;4.724;2023-05-06T03:35:51;6.60;;;3.53;;
9597;SDS011;4837;50.890;4.724;2023-05-06T03:38:17;9.00;;;4.32;;
9597;SDS011;4837;50.890;4.724;2023-05-06T03:40:43;6.57;;;4.10;;
9597;SDS011;4837;50.890;4.724;2023-05-06T03:43:10;6.25;;;3.92;;
9597;SDS011;4837;50.890;4.724;2023-05-06T03:45:36;7.20;;;4.18;;
9597;SDS011;4837;50.890;4.724;2023-05-06T03:48:02;6.75;;;3.65;;
9597;SDS011;4837;50.890;4.724;2023-05-06T03:50:28;7.53;;;3.75;;
9597;SDS011;4837;50.890;4.724;2023-05-06T03:52:54;6.22;;;3.67;;
9597;SDS011;4837;50.890;4.724;2023-05-06T03:55:20;6.00;;;3.83;;
9597;SDS011;4837;50.890;4.724;2023-05-06T03:57:46;7.28;;;3.88;;
9597;SDS011;4837;50.890;4.724;2023-05-06T04:00:12;7.72;;;3.78;;
9597;SDS011;4837;50.890;4.724;2023-05-06T04:02:38;6.28;;;3.75;;
9597;SDS011;4837;50.890;4.724;2023-05-06T04:05:06;7.07;;;4.03;;
9597;SDS011;4837;50.890;4.724;2023-05-06T04:07:32;6.63;;;3.63;;
9597;SDS011;4837;50.890;4.724;2023-05-06T04:09:59;9.18;;;4.20;;
9597;SDS011;4837;50.890;4.724;2023-05-06T04:12:25;5.38;;;4.03;;
9597;SDS011;4837;50.890;4.724;2023-05-06T04:14:51;5.88;;;3.95;;
9597;SDS011;4837;50.890;4.724;2023-05-06T04:17:17;7.82;;;4.30;;
9597;SDS011;4837;50.890;4.724;2023-05-06T04:19:43;6.25;;;3.50;;
9597;SDS011;4837;50.890;4.724;2023-05-06T04:22:10;8.48;;;4.05;;
9597;SDS011;4837;50.890;4.724;2023-05-06T04:24:36;4.57;;;3.28;;
9597;SDS011;4837;50.890;4.724;2023-05-06T04:27:02;7.28;;;4.30;;
9597;SDS011;4837;50.890;4.724;2023-05-06T04:29:28;6.38;;;3.40;;
9597;SDS011;4837;50.890;4.724;2023-05-06T04:31:54;6.72;;;3.70;;
9597;SDS011;4837;50.890;4.724;2023-05-06T04:34:23;6.13;;;3.55;;
9597;SDS011;4837;50.890;4.724;2023-05-06T04:36:51;6.65;;;3.50;;
9597;SDS011;4837;50.890;4.724;2023-05-06T04:39:18;6.03;;;3.80;;
9597;SDS011;4837;50.890;4.724;2023-05-06T04:41:44;9.07;;;4.15;;
9597;SDS011;4837;50.890;4.724;2023-05-06T04:44:10;5.47;;;3.60;;
9597;SDS011;4837;50.890;4.724;2023-05-06T04:46:37;6.55;;;3.95;;
9597;SDS011;4837;50.890;4.724;2023-05-06T04:49:03;4.78;;;3.38;;
9597;SDS011;4837;50.890;4.724;2023-05-06T04:51:29;6.80;;;3.97;;
9597;SDS011;4837;50.890;4.724;2023-05-06T04:53:56;8.15;;;4.35;;
9597;SDS011;4837;50.890;4.724;2023-05-06T04:56:22;7.03;;;3.97;;
9597;SDS011;4837;50.890;4.724;2023-05-06T04:58:48;6.72;;;4.18;;
9597;SDS011;4837;50.890;4.724;2023-05-06T05:01:14;7.78;;;4.07;;
9597;SDS011;4837;50.890;4.724;2023-05-06T05:03:40;8.40;;;4.28;;
9597;SDS011;4837;50.890;4.724;2023-05-06T05:06:06;7.28;;;3.85;;
9597;SDS011;4837;50.890;4.724;2023-05-06T05:08:32;8.10;;;4.03;;
9597;SDS011;4837;50.890;4.724;2023-05-06T05:10:58;5.93;;;3.97;;
9597;SDS011;4837;50.890;4.724;2023-05-06T05:13:24;6.90;;;4.00;;
9597;SDS011;4837;50.890;4.724;2023-05-06T05:15:53;6.60;;;3.80;;
9597;SDS011;4837;50.890;4.724;2023-05-06T05:18:19;7.68;;;4.20;;
9597;SDS011;4837;50.890;4.724;2023-05-06T05:20:45;6.65;;;4.10;;
9597;SDS011;4837;50.890;4.724;2023-05-06T05:23:11;6.80;;;4.03;;
9597;SDS011;4837;50.890;4.724;2023-05-06T05:25:38;8.13;;;4.72;;
9597;SDS011;4837;50.890;4.724;2023-05-06T05:28:04;6.13;;;4.32;;
9597;SDS011;4837;50.890;4.724;2023-05-06T05:30:30;4.97;;;3.92;;
9597;SDS011;4837;50.890;4.724;2023-05-06T05:32:56;6.88;;;4.03;;
9597;SDS011;4837;50.890;4.724;2023-05-06T05:35:22;7.63;;;4.53;;
9597;SDS011;4837;50.890;4.724;2023-05-06T05:37:48;8.40;;;4.28;;
9597;SDS011;4837;50.890;4.724;2023-05-06T05:40:14;8.88;;;4.28;;
9597;SDS011;4837;50.890;4.724;2023-05-06T05:42:40;5.75;;;3.53;;
9597;SDS011;4837;50.890;4.724;2023-05-06T05:45:06;6.05;;;3.60;;
9597;SDS011;4837;50.890;4.724;2023-05-06T05:47:33;7.00;;;3.67;;
9597;SDS011;4837;50.890;4.724;2023-05-06T05:49:59;6.55;;;3.83;;
9597;SDS011;4837;50.890;4.724;2023-05-06T05:52:25;13.93;;;4.28;;
9597;SDS011;4837;50.890;4.724;2023-05-06T05:54:51;10.32;;;4.00;;
9597;SDS011;4837;50.890;4.724;2023-05-06T05:57:17;9.20;;;4.00;;
9597;SDS011;4837;50.890;4.724;2023-05-06T05:59:43;6.97;;;3.55;;
9597;SDS011;4837;50.890;4.724;2023-05-06T06:02:09;7.28;;;3.35;;
9597;SDS011;4837;50.890;4.724;2023-05-06T06:04:35;6.15;;;3.60;;
9597;SDS011;4837;50.890;4.724;2023-05-06T06:07:01;7.72;;;3.50;;
9597;SDS011;4837;50.890;4.724;2023-05-06T06:09:27;7.63;;;3.55;;
9597;SDS011;4837;50.890;4.724;2023-05-06T06:11:53;5.05;;;3.10;;
9597;SDS011;4837;50.890;4.724;2023-05-06T06:14:20;6.30;;;3.63;;
9597;SDS011;4837;50.890;4.724;2023-05-06T06:16:46;5.43;;;3.50;;
9597;SDS011;4837;50.890;4.724;2023-05-06T06:19:12;6.30;;;3.65;;
9597;SDS011;4837;50.890;4.724;2023-05-06T06:21:39;4.40;;;3.22;;
9597;SDS011;4837;50.890;4.724;2023-05-06T06:24:05;7.53;;;3.85;;
9597;SDS011;4837;50.890;4.724;2023-05-06T06:26:32;8.02;;;3.70;;
9597;SDS011;4837;50.890;4.724;2023-05-06T06:28:58;5.03;;;3.38;;
9597;SDS011;4837;50.890;4.724;2023-05-06T06:31:24;5.70;;;3.95;;
9597;SDS011;4837;50.890;4.724;2023-05-06T06:33:50;5.05;;;3.00;;
9597;SDS011;4837;50.890;4.724;2023-05-06T06:36:16;4.68;;;3.03;;
9597;SDS011;4837;50.890;4.724;2023-05-06T06:38:42;4.72;;;3.10;;
9597;SDS011;4837;50.890;4.724;2023-05-06T06:41:09;5.60;;;3.10;;
9597;SDS011;4837;50.890;4.724;2023-05-06T06:43:35;6.15;;;3.47;;
9597;SDS011;4837;50.890;4.724;2023-05-06T06:46:01;4.57;;;3.22;;
9597;SDS011;4837;50.890;4.724;2023-05-06T06:48:27;4.90;;;3.10;;
9597;SDS011;4837;50.890;4.724;2023-05-06T06:50:53;4.57;;;3.42;;
9597;SDS011;4837;50.890;4.724;2023-05-06T06:53:20;3.22;;;2.45;;
9597;SDS011;4837;50.890;4.724;2023-05-06T06:55:46;4.13;;;3.00;;
9597;SDS011;4837;50.890;4.724;2023-05-06T06:58:12;4.55;;;3.00;;
9597;SDS011;4837;50.890;4.724;2023-05-06T07:00:38;4.72;;;2.60;;
9597;SDS011;4837;50.890;4.724;2023-05-06T07:03:04;3.90;;;2.75;;
9597;SDS011;4837;50.890;4.724;2023-05-06T07:05:30;3.53;;;2.47;;
9597;SDS011;4837;50.890;4.724;2023-05-06T07:07:56;4.03;;;2.72;;
9597;SDS011;4837;50.890;4.724;2023-05-06T07:10:22;3.00;;;2.28;;
9597;SDS011;4837;50.890;4.724;2023-05-06T07:12:48;3.78;;;2.47;;
9597;SDS011;4837;50.890;4.724;2023-05-06T07:15:15;4.57;;;2.53;;
9597;SDS011;4837;50.890;4.724;2023-05-06T07:17:41;4.70;;;2.47;;
9597;SDS011;4837;50.890;4.724;2023-05-06T07:20:07;6.57;;;2.85;;
9597;SDS011;4837;50.890;4.724;2023-05-06T07:22:33;3.17;;;2.20;;
9597;SDS011;4837;50.890;4.724;2023-05-06T07:24:59;3.08;;;2.10;;
9597;SDS011;4837;50.890;4.724;2023-05-06T07:27:25;4.45;;;2.25;;
9597;SDS011;4837;50.890;4.724;2023-05-06T07:29:54;2.65;;;2.10;;
9597;SDS011;4837;50.890;4.724;2023-05-06T07:32:20;3.13;;;2.50;;
9597;SDS011;4837;50.890;4.724;2023-05-06T07:34:46;3.65;;;2.20;;
9597;SDS011;4837;50.890;4.724;2023-05-06T07:37:12;4.13;;;2.10;;
9597;SDS011;4837;50.890;4.724;2023-05-06T07:39:38;3.03;;;2.03;;
9597;SDS011;4837;50.890;4.724;2023-05-06T07:42:04;3.17;;;1.95;;
9597;SDS011;4837;50.890;4.724;2023-05-06T07:44:31;5.30;;;2.05;;
9597;SDS011;4837;50.890;4.724;2023-05-06T07:46:57;3.10;;;1.88;;
9597;SDS011;4837;50.890;4.724;2023-05-06T07:49:23;3.20;;;1.77;;
9597;SDS011;4837;50.890;4.724;2023-05-06T07:51:52;4.00;;;2.28;;
9597;SDS011;4837;50.890;4.724;2023-05-06T07:54:19;3.03;;;1.60;;
9597;SDS011;4837;50.890;4.724;2023-05-06T07:56:45;4.30;;;2.15;;
9597;SDS011;4837;50.890;4.724;2023-05-06T07:59:11;3.85;;;1.80;;
9597;SDS011;4837;50.890;4.724;2023-05-06T08:01:37;2.78;;;1.70;;
9597;SDS011;4837;50.890;4.724;2023-05-06T08:04:03;3.92;;;2.10;;
9597;SDS011;4837;50.890;4.724;2023-05-06T08:06:29;2.50;;;1.90;;
9597;SDS011;4837;50.890;4.724;2023-05-06T08:08:56;4.18;;;2.05;;
9597;SDS011;4837;50.890;4.724;2023-05-06T08:11:22;3.83;;;2.35;;
9597;SDS011;4837;50.890;4.724;2023-05-06T08:13:48;4.63;;;1.98;;
9597;SDS011;4837;50.890;4.724;2023-05-06T08:16:14;4.57;;;1.98;;
9597;SDS011;4837;50.890;4.724;2023-05-06T08:18:40;3.08;;;2.42;;
9597;SDS011;4837;50.890;4.724;2023-05-06T08:21:07;2.65;;;1.85;;
9597;SDS011;4837;50.890;4.724;2023-05-06T08:23:33;2.65;;;2.00;;
9597;SDS011;4837;50.890;4.724;2023-05-06T08:25:59;4.28;;;2.03;;
9597;SDS011;4837;50.890;4.724;2023-05-06T08:28:26;3.22;;;1.98;;
9597;SDS011;4837;50.890;4.724;2023-05-06T08:30:53;3.78;;;1.73;;
9597;SDS011;4837;50.890;4.724;2023-05-06T08:33:19;3.17;;;2.03;;
9597;SDS011;4837;50.890;4.724;2023-05-06T08:35:45;2.78;;;1.98;;
9597;SDS011;4837;50.890;4.724;2023-05-06T08:38:12;3.63;;;1.75;;
9597;SDS011;4837;50.890;4.724;2023-05-06T08:40:40;2.75;;;1.80;;
9597;SDS011;4837;50.890;4.724;2023-05-06T08:43:07;2.30;;;1.70;;
9597;SDS011;4837;50.890;4.724;2023-05-06T08:45:36;3.78;;;1.85;;
9597;SDS011;4837;50.890;4.724;2023-05-06T08:48:03;3.60;;;2.10;;
9597;SDS011;4837;50.890;4.724;2023-05-06T08:50:29;2.22;;;1.80;;
9597;SDS011;4837;50.890;4.724;2023-05-06T08:52:55;4.43;;;2.35;;
9597;SDS011;4837;50.890;4.724;2023-05-06T08:55:21;3.58;;;1.60;;
9597;SDS011;4837;50.890;4.724;2023-05-06T08:57:49;3.28;;;1.90;;
9597;SDS011;4837;50.890;4.724;2023-05-06T09:00:17;2.65;;;1.73;;
9597;SDS011;4837;50.890;4.724;2023-05-06T09:02:43;3.42;;;1.88;;
9597;SDS011;4837;50.890;4.724;2023-05-06T09:05:09;3.70;;;2.20;;
9597;SDS011;4837;50.890;4.724;2023-05-06T09:07:36;2.45;;;1.58;;
9597;SDS011;4837;50.890;4.724;2023-05-06T09:10:06;2.80;;;1.80;;
9597;SDS011;4837;50.890;4.724;2023-05-06T09:12:38;3.10;;;1.75;;
9597;SDS011;4837;50.890;4.724;2023-05-06T09:15:04;4.45;;;1.40;;
9597;SDS011;4837;50.890;4.724;2023-05-06T09:17:31;2.63;;;1.80;;
9597;SDS011;4837;50.890;4.724;2023-05-06T09:19:57;2.97;;;1.60;;
9597;SDS011;4837;50.890;4.724;2023-05-06T09:22:28;3.47;;;1.80;;
9597;SDS011;4837;50.890;4.724;2023-05-06T09:24:55;4.45;;;2.00;;
9597;SDS011;4837;50.890;4.724;2023-05-06T09:27:25;2.95;;;1.90;;
9597;SDS011;4837;50.890;4.724;2023-05-06T09:30:08;5.15;;;1.70;;
9597;SDS011;4837;50.890;4.724;2023-05-06T09:32:35;3.45;;;1.60;;
9597;SDS011;4837;50.890;4.724;2023-05-06T09:35:02;3.30;;;1.70;;
9597;SDS011;4837;50.890;4.724;2023-05-06T09:37:35;2.58;;;1.55;;
9597;SDS011;4837;50.890;4.724;2023-05-06T09:40:01;5.05;;;1.52;;
9597;SDS011;4837;50.890;4.724;2023-05-06T09:42:28;3.58;;;1.45;;
9597;SDS011;4837;50.890;4.724;2023-05-06T09:44:55;3.03;;;1.70;;
9597;SDS011;4837;50.890;4.724;2023-05-06T09:47:25;2.70;;;1.48;;
9597;SDS011;4837;50.890;4.724;2023-05-06T09:49:55;2.55;;;1.55;;
9597;SDS011;4837;50.890;4.724;2023-05-06T09:52:25;2.75;;;1.70;;
9597;SDS011;4837;50.890;4.724;2023-05-06T09:54:52;2.15;;;1.40;;
9597;SDS011;4837;50.890;4.724;2023-05-06T09:57:18;4.03;;;1.73;;
9597;SDS011;4837;50.890;4.724;2023-05-06T09:59:46;4.35;;;1.83;;
9597;SDS011;4837;50.890;4.724;2023-05-06T10:02:12;3.88;;;1.60;;
9597;SDS011;4837;50.890;4.724;2023-05-06T10:04:39;2.63;;;1.55;;
9597;SDS011;4837;50.890;4.724;2023-05-06T10:07:07;4.70;;;1.83;;
9597;SDS011;4837;50.890;4.724;2023-05-06T10:09:35;2.92;;;1.60;;
9597;SDS011;4837;50.890;4.724;2023-05-06T10:12:02;2.70;;;1.23;;
9597;SDS011;4837;50.890;4.724;2023-05-06T10:14:29;3.33;;;1.35;;
9597;SDS011;4837;50.890;4.724;2023-05-06T10:16:55;3.05;;;1.30;;
9597;SDS011;4837;50.890;4.724;2023-05-06T10:19:22;3.03;;;1.25;;
9597;SDS011;4837;50.890;4.724;2023-05-06T10:21:52;3.22;;;1.27;;
9597;SDS011;4837;50.890;4.724;2023-05-06T10:24:21;2.55;;;1.13;;
9597;SDS011;4837;50.890;4.724;2023-05-06T10:26:48;3.60;;;1.42;;
9597;SDS011;4837;50.890;4.724;2023-05-06T10:29:15;1.92;;;1.25;;
9597;SDS011;4837;50.890;4.724;2023-05-06T10:31:47;2.22;;;1.50;;
9597;SDS011;4837;50.890;4.724;2023-05-06T10:34:14;1.95;;;1.42;;
9597;SDS011;4837;50.890;4.724;2023-05-06T10:36:40;3.65;;;1.65;;
9597;SDS011;4837;50.890;4.724;2023-05-06T10:39:08;2.10;;;1.35;;
9597;SDS011;4837;50.890;4.724;2023-05-06T10:41:36;2.78;;;1.45;;
9597;SDS011;4837;50.890;4.724;2023-05-06T10:44:03;2.70;;;1.48;;
9597;SDS011;4837;50.890;4.724;2023-05-06T10:46:30;2.95;;;1.50;;
9597;SDS011;4837;50.890;4.724;2023-05-06T10:51:30;4.35;;;1.50;;
9597;SDS011;4837;50.890;4.724;2023-05-06T10:54:09;5.07;;;1.35;;
9597;SDS011;4837;50.890;4.724;2023-05-06T10:56:39;5.68;;;1.73;;
9597;SDS011;4837;50.890;4.724;2023-05-06T10:59:26;2.47;;;1.48;;
9597;SDS011;4837;50.890;4.724;2023-05-06T11:04:29;3.60;;;1.65;;
9597;SDS011;4837;50.890;4.724;2023-05-06T11:07:14;2.42;;;1.20;;
9597;SDS011;4837;50.890;4.724;2023-05-06T11:09:57;4.30;;;1.40;;
9597;SDS011;4837;50.890;4.724;2023-05-06T11:12:42;2.33;;;1.33;;
9597;SDS011;4837;50.890;4.724;2023-05-06T11:17:54;3.75;;;1.48;;
9597;SDS011;4837;50.890;4.724;2023-05-06T11:20:24;2.95;;;1.20;;
9597;SDS011;4837;50.890;4.724;2023-05-06T11:22:51;3.25;;;1.27;;
9597;SDS011;4837;50.890;4.724;2023-05-06T11:28:07;3.75;;;1.55;;
9597;SDS011;4837;50.890;4.724;2023-05-06T11:30:33;2.63;;;1.63;;
9597;SDS011;4837;50.890;4.724;2023-05-06T11:32:59;2.45;;;1.45;;
9597;SDS011;4837;50.890;4.724;2023-05-06T11:35:35;4.03;;;1.50;;
9597;SDS011;4837;50.890;4.724;2023-05-06T11:38:01;2.67;;;1.27;;
9597;SDS011;4837;50.890;4.724;2023-05-06T11:40:28;3.00;;;1.23;;
9597;SDS011;4837;50.890;4.724;2023-05-06T11:42:54;3.03;;;1.50;;
9597;SDS011;4837;50.890;4.724;2023-05-06T11:45:20;1.67;;;1.38;;
9597;SDS011;4837;50.890;4.724;2023-05-06T11:47:47;3.67;;;1.35;;
9597;SDS011;4837;50.890;4.724;2023-05-06T11:50:13;4.55;;;1.40;;
9597;SDS011;4837;50.890;4.724;2023-05-06T11:52:39;3.60;;;1.45;;
9597;SDS011;4837;50.890;4.724;2023-05-06T11:55:06;2.67;;;1.40;;
9597;SDS011;4837;50.890;4.724;2023-05-06T11:57:34;2.92;;;1.10;;
9597;SDS011;4837;50.890;4.724;2023-05-06T12:00:00;3.05;;;1.30;;
9597;SDS011;4837;50.890;4.724;2023-05-06T12:02:28;3.00;;;1.40;;
9597;SDS011;4837;50.890;4.724;2023-05-06T12:04:54;3.72;;;1.52;;
9597;SDS011;4837;50.890;4.724;2023-05-06T12:07:22;4.38;;;1.55;;
9597;SDS011;4837;50.890;4.724;2023-05-06T12:09:48;2.92;;;1.50;;
9597;SDS011;4837;50.890;4.724;2023-05-06T12:12:15;3.42;;;1.40;;
9597;SDS011;4837;50.890;4.724;2023-05-06T12:14:42;2.20;;;1.50;;
9597;SDS011;4837;50.890;4.724;2023-05-06T12:17:08;4.07;;;1.80;;
9597;SDS011;4837;50.890;4.724;2023-05-06T12:19:35;4.10;;;1.55;;
9597;SDS011;4837;50.890;4.724;2023-05-06T12:24:39;4.30;;;1.80;;
9597;SDS011;4837;50.890;4.724;2023-05-06T12:27:05;2.88;;;1.60;;
9597;SDS011;4837;50.890;4.724;2023-05-06T12:29:32;3.65;;;1.63;;
9597;SDS011;4837;50.890;4.724;2023-05-06T12:32:10;2.33;;;1.35;;
9597;SDS011;4837;50.890;4.724;2023-05-06T12:34:37;3.13;;;1.50;;
9597;SDS011;4837;50.890;4.724;2023-05-06T12:37:04;3.17;;;1.60;;
9597;SDS011;4837;50.890;4.724;2023-05-06T12:39:34;3.10;;;1.52;;
9597;SDS011;4837;50.890;4.724;2023-05-06T12:42:00;3.38;;;1.50;;
9597;SDS011;4837;50.890;4.724;2023-05-06T12:47:00;4.60;;;1.65;;
9597;SDS011;4837;50.890;4.724;2023-05-06T12:49:42;3.38;;;1.83;;
9597;SDS011;4837;50.890;4.724;2023-05-06T12:52:08;2.95;;;1.60;;
9597;SDS011;4837;50.890;4.724;2023-05-06T12:54:35;4.45;;;1.85;;
9597;SDS011;4837;50.890;4.724;2023-05-06T12:57:02;4.20;;;1.63;;
9597;SDS011;4837;50.890;4.724;2023-05-06T12:59:28;4.63;;;2.08;;
9597;SDS011;4837;50.890;4.724;2023-05-06T13:01:54;5.50;;;1.80;;
9597;SDS011;4837;50.890;4.724;2023-05-06T13:04:20;4.65;;;1.95;;
9597;SDS011;4837;50.890;4.724;2023-05-06T13:06:47;3.97;;;1.50;;
9597;SDS011;4837;50.890;4.724;2023-05-06T13:09:14;4.72;;;1.40;;
9597;SDS011;4837;50.890;4.724;2023-05-06T13:11:40;4.40;;;1.70;;
9597;SDS011;4837;50.890;4.724;2023-05-06T13:14:06;4.90;;;1.50;;
9597;SDS011;4837;50.890;4.724;2023-05-06T13:16:33;5.40;;;1.75;;
9597;SDS011;4837;50.890;4.724;2023-05-06T13:18:59;3.50;;;1.52;;
9597;SDS011;4837;50.890;4.724;2023-05-06T13:21:25;4.47;;;1.80;;
9597;SDS011;4837;50.890;4.724;2023-05-06T13:23:52;2.53;;;1.60;;
9597;SDS011;4837;50.890;4.724;2023-05-06T13:26:18;3.60;;;1.80;;
9597;SDS011;4837;50.890;4.724;2023-05-06T13:28:44;2.42;;;1.40;;
9597;SDS011;4837;50.890;4.724;2023-05-06T13:31:10;4.38;;;1.58;;
9597;SDS011;4837;50.890;4.724;2023-05-06T13:33:36;2.60;;;1.50;;
9597;SDS011;4837;50.890;4.724;2023-05-06T13:36:02;4.38;;;1.60;;
9597;SDS011;4837;50.890;4.724;2023-05-06T13:38:28;2.72;;;1.48;;
9597;SDS011;4837;50.890;4.724;2023-05-06T13:40:55;2.65;;;1.63;;
9597;SDS011;4837;50.890;4.724;2023-05-06T13:43:21;2.92;;;1.73;;
9597;SDS011;4837;50.890;4.724;2023-05-06T13:45:51;3.53;;;1.55;;
9597;SDS011;4837;50.890;4.724;2023-05-06T13:48:18;2.92;;;1.30;;
9597;SDS011;4837;50.890;4.724;2023-05-06T13:50:44;4.80;;;1.70;;
9597;SDS011;4837;50.890;4.724;2023-05-06T13:53:11;4.50;;;1.50;;
9597;SDS011;4837;50.890;4.724;2023-05-06T13:55:37;3.92;;;1.40;;
9597;SDS011;4837;50.890;4.724;2023-05-06T13:58:04;2.47;;;1.58;;
9597;SDS011;4837;50.890;4.724;2023-05-06T14:00:30;3.47;;;1.88;;
9597;SDS011;4837;50.890;4.724;2023-05-06T14:02:56;3.88;;;1.98;;
9597;SDS011;4837;50.890;4.724;2023-05-06T14:05:23;2.65;;;1.50;;
9597;SDS011;4837;50.890;4.724;2023-05-06T14:07:49;2.25;;;1.20;;
9597;SDS011;4837;50.890;4.724;2023-05-06T14:10:15;2.90;;;1.50;;
9597;SDS011;4837;50.890;4.724;2023-05-06T14:12:41;4.18;;;1.70;;
9597;SDS011;4837;50.890;4.724;2023-05-06T14:15:08;3.70;;;1.50;;
9597;SDS011;4837;50.890;4.724;2023-05-06T14:17:34;3.15;;;1.50;;
9597;SDS011;4837;50.890;4.724;2023-05-06T14:20:01;3.20;;;1.27;;
9597;SDS011;4837;50.890;4.724;2023-05-06T14:22:29;4.45;;;1.73;;
9597;SDS011;4837;50.890;4.724;2023-05-06T14:24:55;3.72;;;1.60;;
9597;SDS011;4837;50.890;4.724;2023-05-06T14:27:21;5.25;;;1.63;;
9597;SDS011;4837;50.890;4.724;2023-05-06T14:29:47;3.17;;;1.40;;
9597;SDS011;4837;50.890;4.724;2023-05-06T14:32:13;3.25;;;1.35;;
9597;SDS011;4837;50.890;4.724;2023-05-06T14:34:40;3.40;;;1.50;;
9597;SDS011;4837;50.890;4.724;2023-05-06T14:37:06;4.72;;;1.70;;
9597;SDS011;4837;50.890;4.724;2023-05-06T14:39:32;3.35;;;1.48;;
9597;SDS011;4837;50.890;4.724;2023-05-06T14:41:58;2.28;;;1.45;;
9597;SDS011;4837;50.890;4.724;2023-05-06T14:44:24;4.30;;;1.77;;
9597;SDS011;4837;50.890;4.724;2023-05-06T14:46:50;3.85;;;1.60;;
9597;SDS011;4837;50.890;4.724;2023-05-06T14:49:16;3.03;;;1.70;;
9597;SDS011;4837;50.890;4.724;2023-05-06T14:51:43;3.35;;;1.27;;
9597;SDS011;4837;50.890;4.724;2023-05-06T14:54:09;4.38;;;1.80;;
9597;SDS011;4837;50.890;4.724;2023-05-06T14:56:35;4.82;;;1.80;;
9597;SDS011;4837;50.890;4.724;2023-05-06T14:59:02;3.58;;;1.67;;
9597;SDS011;4837;50.890;4.724;2023-05-06T15:01:28;6.68;;;1.85;;
9597;SDS011;4837;50.890;4.724;2023-05-06T15:03:56;4.10;;;1.77;;
9597;SDS011;4837;50.890;4.724;2023-05-06T15:06:22;4.38;;;1.60;;
9597;SDS011;4837;50.890;4.724;2023-05-06T15:08:48;3.78;;;1.55;;
9597;SDS011;4837;50.890;4.724;2023-05-06T15:11:15;5.38;;;1.67;;
9597;SDS011;4837;50.890;4.724;2023-05-06T15:13:41;3.50;;;1.70;;
9597;SDS011;4837;50.890;4.724;2023-05-06T15:16:07;8.77;;;1.70;;
9597;SDS011;4837;50.890;4.724;2023-05-06T15:18:33;3.70;;;1.70;;
9597;SDS011;4837;50.890;4.724;2023-05-06T15:20:59;3.97;;;1.60;;
9597;SDS011;4837;50.890;4.724;2023-05-06T15:23:26;5.55;;;1.80;;
9597;SDS011;4837;50.890;4.724;2023-05-06T15:25:52;4.85;;;1.77;;
9597;SDS011;4837;50.890;4.724;2023-05-06T15:28:18;4.63;;;1.75;;
9597;SDS011;4837;50.890;4.724;2023-05-06T15:30:44;5.20;;;1.70;;
9597;SDS011;4837;50.890;4.724;2023-05-06T15:33:10;4.90;;;1.88;;
9597;SDS011;4837;50.890;4.724;2023-05-06T15:35:37;5.78;;;1.75;;
9597;SDS011;4837;50.890;4.724;2023-05-06T15:38:03;4.82;;;1.77;;